Time;durP1;ratioP1;P1;durP2;ratioP2;P2;SDS_P1;SDS_P2;PMS_P1;PMS_P2;Temp;Humidity;BMP_temperature;BMP_pressure;BME280_temperature;BME280_humidity;BME280_pressure;Samples;Min_cycle;Max_cycle;Signal;HPM_P1;HPM_P2
2023/01/27 00:00:53;;;;;;;13.03;10.07;;;1.30;87.20;;;;;;5071774;28;20269;-87
2023/01/27 00:03:19;;;;;;;10.53;9.43;;;1.20;88.00;;;;;;5072270;28;20172;-88
2023/01/27 00:05:45;;;;;;;10.83;8.97;;;1.20;88.60;;;;;;5072987;28;20196;-88
2023/01/27 00:08:11;;;;;;;10.77;8.97;;;1.20;88.50;;;;;;5072587;28;20195;-88
2023/01/27 00:10:37;;;;;;;11.17;9.60;;;1.20;88.90;;;;;;5075545;28;20191;-87
2023/01/27 00:15:47;;;;;;;11.77;9.73;;;1.30;89.90;;;;;;5074085;28;20525;-87
2023/01/27 00:18:13;;;;;;;11.00;9.80;;;1.40;87.80;;;;;;5074758;28;20192;-88
2023/01/27 00:26:13;;;;;;;11.47;9.83;;;1.30;87.80;;;;;;5074327;28;20195;-88
2023/01/27 00:28:40;;;;;;;9.73;8.73;;;1.30;88.60;;;;;;5069543;28;20211;-88
2023/01/27 00:33:53;;;;;;;12.70;10.57;;;1.20;88.60;;;;;;5064292;28;20225;-88
2023/01/27 00:36:18;;;;;;;12.43;10.67;;;1.20;89.30;;;;;;5072079;28;20172;-87
2023/01/27 00:38:44;;;;;;;12.60;11.03;;;1.20;89.60;;;;;;5073076;28;20619;-89
2023/01/27 00:41:28;;;;;;;11.97;10.17;;;1.10;90.50;;;;;;5073782;28;20179;-87
2023/01/27 00:43:54;;;;;;;14.77;10.90;;;1.10;91.40;;;;;;5073892;28;20191;-88
2023/01/27 00:46:23;;;;;;;12.97;11.10;;;1.10;91.30;;;;;;5074191;28;20859;-90
2023/01/27 00:48:50;;;;;;;13.83;11.17;;;1.00;92.30;;;;;;5072443;28;20683;-87
2023/01/27 00:51:17;;;;;;;11.77;10.37;;;1.10;91.20;;;;;;5073356;28;20253;-87
2023/01/27 00:53:43;;;;;;;13.00;11.47;;;1.10;91.50;;;;;;5073825;28;20175;-88
2023/01/27 00:56:09;;;;;;;11.73;9.97;;;1.10;90.70;;;;;;5076977;28;20241;-88
2023/01/27 00:58:35;;;;;;;14.13;11.70;;;1.20;92.20;;;;;;5072151;28;20210;-88
2023/01/27 01:01:03;;;;;;;13.97;12.23;;;1.30;90.60;;;;;;5073012;28;20160;-87
2023/01/27 01:03:30;;;;;;;13.10;11.40;;;1.30;89.90;;;;;;5075526;28;20195;-87
2023/01/27 01:05:57;;;;;;;13.77;11.73;;;1.20;90.00;;;;;;5073326;28;20270;-87
2023/01/27 01:08:24;;;;;;;12.90;11.50;;;1.20;90.50;;;;;;5090482;28;20179;-89
2023/01/27 01:10:50;;;;;;;14.00;11.47;;;1.20;91.00;;;;;;5090520;28;20263;-87
2023/01/27 01:13:16;;;;;;;13.87;11.10;;;1.30;91.80;;;;;;5074734;28;20199;-90
2023/01/27 01:15:42;;;;;;;15.30;12.33;;;1.30;91.10;;;;;;5071916;28;20188;-87
2023/01/27 01:18:10;;;;;;;16.13;11.93;;;1.30;90.20;;;;;;5072853;28;20213;-87
2023/01/27 01:20:42;;;;;;;12.93;11.47;;;1.30;91.10;;;;;;5072077;28;20203;-91
2023/01/27 01:23:09;;;;;;;14.47;11.70;;;1.30;90.90;;;;;;5073834;28;20739;-87
2023/01/27 01:25:34;;;;;;;14.13;11.47;;;1.30;90.00;;;;;;5073157;28;20640;-88
2023/01/27 01:28:02;;;;;;;12.40;11.10;;;1.30;90.50;;;;;;5071482;28;20207;-88
2023/01/27 01:30:27;;;;;;;13.37;11.40;;;1.20;90.60;;;;;;5058292;28;20560;-87
2023/01/27 01:32:54;;;;;;;13.33;11.13;;;1.20;91.00;;;;;;5058227;28;20191;-88
2023/01/27 01:35:20;;;;;;;16.50;12.30;;;1.30;91.50;;;;;;5058044;28;20199;-91
2023/01/27 01:37:46;;;;;;;15.47;12.40;;;1.30;90.00;;;;;;5058010;28;20195;-87
2023/01/27 01:40:12;;;;;;;15.97;12.70;;;1.20;90.10;;;;;;5055676;28;20661;-87
2023/01/27 01:42:58;;;;;;;14.07;11.77;;;1.10;89.80;;;;;;5064759;28;20237;-89
2023/01/27 01:45:35;;;;;;;12.80;11.47;;;1.10;91.10;;;;;;5075950;28;20179;-88
2023/01/27 01:48:13;;;;;;;16.03;12.20;;;1.20;91.00;;;;;;5076273;28;20206;-88
2023/01/27 01:50:41;;;;;;;14.60;12.27;;;1.10;90.80;;;;;;5075492;28;20175;-88
2023/01/27 01:53:09;;;;;;;13.43;11.60;;;1.10;91.60;;;;;;5075091;28;20269;-88
2023/01/27 01:55:38;;;;;;;14.47;12.23;;;1.20;91.60;;;;;;5076124;28;20267;-88
2023/01/27 01:58:07;;;;;;;14.87;12.70;;;1.20;90.80;;;;;;5075234;28;20208;-88
2023/01/27 02:00:32;;;;;;;13.83;11.80;;;1.30;90.00;;;;;;5075200;28;20249;-91
2023/01/27 02:02:58;;;;;;;14.80;12.53;;;1.30;90.50;;;;;;5075739;28;20180;-87
2023/01/27 02:05:31;;;;;;;17.33;13.03;;;1.20;89.80;;;;;;5075623;28;20203;-89
2023/01/27 02:08:18;;;;;;;16.33;13.47;;;1.20;90.40;;;;;;5076221;28;20316;-87
2023/01/27 02:10:44;;;;;;;15.37;12.17;;;1.30;90.20;;;;;;5090343;28;20506;-89
2023/01/27 02:13:10;;;;;;;16.93;11.83;;;1.20;90.40;;;;;;5094630;28;20168;-89
2023/01/27 02:15:43;;;;;;;15.23;12.03;;;1.20;90.50;;;;;;5094549;28;20187;-89
2023/01/27 02:18:08;;;;;;;15.27;12.90;;;1.20;89.50;;;;;;5077010;28;20208;-89
2023/01/27 02:20:44;;;;;;;14.87;12.50;;;1.10;90.20;;;;;;5074839;28;20258;-87
2023/01/27 02:23:30;;;;;;;14.23;12.23;;;1.20;90.90;;;;;;5076066;28;20661;-88
2023/01/27 02:26:14;;;;;;;14.37;12.63;;;1.30;90.10;;;;;;5076564;28;20229;-87
2023/01/27 02:28:40;;;;;;;15.83;12.97;;;1.30;90.40;;;;;;5074374;28;20229;-87
2023/01/27 02:31:06;;;;;;;14.93;12.97;;;1.30;90.20;;;;;;5076882;28;20179;-88
2023/01/27 02:33:31;;;;;;;14.70;12.87;;;1.30;90.50;;;;;;5073970;28;20188;-87
2023/01/27 02:36:09;;;;;;;15.60;13.27;;;1.30;90.20;;;;;;5075659;28;20289;-87
2023/01/27 02:38:42;;;;;;;15.03;13.47;;;1.30;90.40;;;;;;5074744;28;20699;-87
2023/01/27 02:41:14;;;;;;;16.50;13.13;;;1.20;90.00;;;;;;5074256;28;20274;-87
2023/01/27 02:43:40;;;;;;;14.43;12.70;;;1.20;90.70;;;;;;5075438;28;20692;-87
2023/01/27 02:46:06;;;;;;;14.03;12.07;;;1.10;91.80;;;;;;5073763;28;20179;-88
2023/01/27 02:48:32;;;;;;;15.90;13.27;;;1.10;91.00;;;;;;5072571;28;20191;-88
2023/01/27 02:50:58;;;;;;;14.70;12.77;;;1.10;91.20;;;;;;5074430;28;20491;-88
2023/01/27 02:53:23;;;;;;;15.97;13.03;;;1.10;91.80;;;;;;5073992;28;20175;-87
2023/01/27 02:55:49;;;;;;;16.13;12.97;;;1.10;91.50;;;;;;5075435;28;20286;-89
2023/01/27 02:58:15;;;;;;;15.00;13.37;;;1.20;91.10;;;;;;5074745;28;20202;-87
2023/01/27 03:00:41;;;;;;;15.93;13.37;;;1.20;91.20;;;;;;5073796;28;20211;-87
2023/01/27 03:03:07;;;;;;;14.77;12.10;;;1.10;91.30;;;;;;5075391;28;20783;-88
2023/01/27 03:05:33;;;;;;;16.77;12.90;;;1.10;91.60;;;;;;5075094;28;20198;-87
2023/01/27 03:07:59;;;;;;;15.33;12.87;;;1.20;91.50;;;;;;5078546;28;20207;-87
2023/01/27 03:10:24;;;;;;;15.63;13.37;;;1.10;91.60;;;;;;5075679;28;20210;-86
2023/01/27 03:12:50;;;;;;;15.63;13.03;;;1.10;91.70;;;;;;5075426;28;20350;-87
2023/01/27 03:18:15;;;;;;;14.57;13.03;;;1.10;92.40;;;;;;5077159;28;20210;-88
2023/01/27 03:20:46;;;;;;;16.37;14.00;;;1.10;92.60;;;;;;5077797;28;20726;-87
2023/01/27 03:23:13;;;;;;;16.53;14.10;;;1.10;93.10;;;;;;5074545;28;20718;-88
2023/01/27 03:25:44;;;;;;;14.73;13.13;;;1.10;92.30;;;;;;5073096;28;20260;-87
2023/01/27 03:28:10;;;;;;;15.33;12.30;;;1.00;92.80;;;;;;5076437;28;20199;-87
2023/01/27 03:30:36;;;;;;;15.93;12.07;;;1.10;93.00;;;;;;5075035;28;20698;-87
2023/01/27 03:33:04;;;;;;;14.83;12.67;;;1.00;92.30;;;;;;5075381;28;20180;-85
2023/01/27 03:35:37;;;;;;;14.87;12.00;;;0.90;92.30;;;;;;5077400;28;20195;-88
2023/01/27 03:46:22;;;;;;;14.40;11.40;;;1.10;92.70;;;;;;5095114;28;20194;-89
2023/01/27 03:48:55;;;;;;;14.50;12.27;;;1.20;92.10;;;;;;5093293;28;20199;-89
2023/01/27 03:51:22;;;;;;;14.93;11.90;;;1.20;91.70;;;;;;5093435;28;20182;-89
2023/01/27 03:53:49;;;;;;;14.03;12.50;;;1.20;91.10;;;;;;5077071;28;20186;-87
2023/01/27 03:56:16;;;;;;;13.70;12.13;;;1.20;90.90;;;;;;5076412;28;20176;-87
2023/01/27 03:58:42;;;;;;;16.27;12.67;;;1.10;91.80;;;;;;5075578;28;20299;-87
2023/01/27 04:01:22;;;;;;;13.20;11.80;;;1.10;91.80;;;;;;5078147;28;20705;-88
2023/01/27 04:06:52;;;;;;;14.57;10.83;;;1.00;93.00;;;;;;5071373;28;20249;-88
2023/01/27 04:09:33;;;;;;;13.93;11.63;;;1.00;93.80;;;;;;5075581;28;20225;-86
2023/01/27 04:12:00;;;;;;;14.17;11.07;;;1.10;93.70;;;;;;5078720;28;20263;-88
2023/01/27 04:14:34;;;;;;;12.60;11.10;;;1.10;94.00;;;;;;5076684;28;20176;-87
2023/01/27 04:17:04;;;;;;;15.33;11.80;;;1.00;94.40;;;;;;5076827;28;20191;-87
2023/01/27 04:19:31;;;;;;;13.17;11.40;;;1.00;95.20;;;;;;5078171;28;20265;-88
2023/01/27 04:21:57;;;;;;;13.33;11.03;;;1.00;96.00;;;;;;5075877;28;20190;-87
2023/01/27 04:24:24;;;;;;;14.77;10.70;;;1.00;96.40;;;;;;5075570;28;20182;-88
2023/01/27 04:27:01;;;;;;;14.53;11.40;;;1.00;96.40;;;;;;5077195;28;20210;-89
2023/01/27 04:29:29;;;;;;;14.17;11.37;;;1.10;96.00;;;;;;5076973;28;20207;-88
2023/01/27 04:31:59;;;;;;;14.87;12.53;;;1.10;96.70;;;;;;5076351;28;20183;-88
2023/01/27 04:34:26;;;;;;;15.43;12.03;;;1.20;96.30;;;;;;5075615;28;20186;-88
2023/01/27 04:36:52;;;;;;;15.70;11.97;;;1.10;96.20;;;;;;5076214;28;20183;-88
2023/01/27 04:39:18;;;;;;;15.57;12.10;;;1.10;96.90;;;;;;5075378;28;20526;-88
2023/01/27 04:41:44;;;;;;;13.37;11.63;;;1.20;96.60;;;;;;5076524;28;20176;-88
2023/01/27 04:44:11;;;;;;;17.70;12.97;;;1.20;96.50;;;;;;5076362;28;20266;-90
2023/01/27 04:46:37;;;;;;;14.77;12.50;;;1.20;97.30;;;;;;5077519;28;20179;-89
2023/01/27 04:49:04;;;;;;;17.17;13.23;;;1.20;97.60;;;;;;5078628;28;20191;-90
2023/01/27 04:51:29;;;;;;;15.23;12.13;;;1.20;97.30;;;;;;5078945;28;20264;-88
2023/01/27 04:53:55;;;;;;;15.40;12.80;;;1.20;97.20;;;;;;5078701;28;20227;-89
2023/01/27 04:56:30;;;;;;;15.37;12.40;;;1.20;97.80;;;;;;5076488;28;20274;-89
2023/01/27 04:59:02;;;;;;;16.03;13.30;;;1.20;98.50;;;;;;5078756;28;20270;-88
2023/01/27 05:01:28;;;;;;;16.10;12.60;;;1.20;98.90;;;;;;5077577;28;20172;-88
2023/01/27 05:03:54;;;;;;;17.00;14.23;;;1.20;98.10;;;;;;5073632;28;20187;-88
2023/01/27 05:06:21;;;;;;;18.00;14.57;;;1.10;98.60;;;;;;5075767;28;20202;-87
2023/01/27 05:08:47;;;;;;;18.73;16.27;;;1.10;98.90;;;;;;5075551;28;20202;-88
2023/01/27 05:11:13;;;;;;;17.03;14.40;;;1.00;99.60;;;;;;5077813;28;20187;-87
2023/01/27 05:13:42;;;;;;;20.43;15.10;;;1.00;99.90;;;;;;5077797;28;20868;-88
2023/01/27 05:16:10;;;;;;;16.40;14.17;;;1.00;99.90;;;;;;5076173;28;20530;-88
2023/01/27 05:18:37;;;;;;;16.77;14.07;;;1.00;99.90;;;;;;5078000;28;20195;-88
2023/01/27 05:21:05;;;;;;;16.13;12.63;;;0.90;99.90;;;;;;5078444;28;20575;-89
2023/01/27 05:23:34;;;;;;;17.93;13.10;;;0.90;99.90;;;;;;5077086;28;20172;-88
2023/01/27 05:26:07;;;;;;;17.70;12.63;;;1.00;99.90;;;;;;5077315;28;20183;-88
2023/01/27 05:28:34;;;;;;;18.67;15.23;;;1.00;99.90;;;;;;5076228;28;20219;-88
2023/01/27 05:31:02;;;;;;;17.90;15.33;;;1.00;99.90;;;;;;5077393;28;20247;-89
2023/01/27 05:33:29;;;;;;;18.47;13.57;;;0.90;99.90;;;;;;5077390;28;20515;-88
2023/01/27 05:35:59;;;;;;;17.40;14.07;;;0.90;99.90;;;;;;5077534;28;20649;-87
2023/01/27 05:38:24;;;;;;;17.30;12.63;;;1.00;99.90;;;;;;5076582;28;20684;-87
2023/01/27 05:40:54;;;;;;;17.43;13.90;;;1.00;99.90;;;;;;5077484;28;20222;-87
2023/01/27 05:43:20;;;;;;;18.97;14.13;;;1.00;99.90;;;;;;5076892;28;20227;-87
2023/01/27 05:45:46;;;;;;;18.57;14.23;;;1.00;99.90;;;;;;5077100;28;20195;-87
2023/01/27 05:48:11;;;;;;;18.53;14.13;;;1.00;99.90;;;;;;5075322;28;20282;-87
2023/01/27 05:50:37;;;;;;;18.90;15.30;;;0.90;99.90;;;;;;5076227;28;20290;-87
2023/01/27 05:53:03;;;;;;;28.00;19.87;;;1.00;99.90;;;;;;5075612;28;20225;-88
2023/01/27 05:55:28;;;;;;;27.03;18.80;;;1.00;99.90;;;;;;5074193;28;20258;-87
2023/01/27 05:57:54;;;;;;;23.57;16.83;;;1.00;99.90;;;;;;5075680;28;20538;-87
2023/01/27 06:00:20;;;;;;;23.27;16.47;;;1.00;99.90;;;;;;5074774;28;20219;-87
2023/01/27 06:02:46;;;;;;;19.20;14.47;;;1.10;99.90;;;;;;5074948;28;20176;-87
2023/01/27 06:05:11;;;;;;;22.43;17.17;;;1.10;99.90;;;;;;5073016;28;20196;-87
2023/01/27 06:07:37;;;;;;;18.27;15.23;;;1.20;99.90;;;;;;5075959;28;20198;-87
2023/01/27 06:10:04;;;;;;;18.70;14.73;;;1.20;99.90;;;;;;5075840;28;20180;-86
2023/01/27 06:12:30;;;;;;;19.50;15.60;;;1.30;99.90;;;;;;5076030;28;20215;-86
2023/01/27 06:14:59;;;;;;;18.93;15.20;;;1.30;99.90;;;;;;5079696;28;20183;-87
2023/01/27 06:17:24;;;;;;;18.27;15.17;;;1.30;99.90;;;;;;5080228;28;20184;-87
2023/01/27 06:19:50;;;;;;;19.90;15.73;;;1.20;99.90;;;;;;5081473;28;20218;-86
2023/01/27 06:22:16;;;;;;;18.57;15.20;;;1.30;99.90;;;;;;5084897;28;20262;-87
2023/01/27 06:24:41;;;;;;;18.47;14.47;;;1.30;99.90;;;;;;5086312;28;20180;-86
2023/01/27 06:27:07;;;;;;;18.70;15.40;;;1.20;99.90;;;;;;5083996;28;20183;-87
2023/01/27 06:29:33;;;;;;;20.67;15.27;;;1.10;99.90;;;;;;5072015;28;20203;-85
2023/01/27 06:31:58;;;;;;;21.37;15.33;;;1.10;99.90;;;;;;5073318;28;20199;-87
2023/01/27 06:34:24;;;;;;;21.03;15.03;;;1.00;99.90;;;;;;5072960;28;20218;-86
2023/01/27 06:36:52;;;;;;;18.70;15.60;;;1.10;99.90;;;;;;5076819;28;20196;-87
2023/01/27 06:39:18;;;;;;;20.50;17.27;;;1.10;99.90;;;;;;5076478;28;20212;-87
2023/01/27 06:41:43;;;;;;;19.43;15.83;;;1.20;99.90;;;;;;5075840;28;20183;-86
2023/01/27 06:44:09;;;;;;;22.93;17.13;;;1.10;99.90;;;;;;5077952;28;20187;-86
2023/01/27 06:46:35;;;;;;;20.00;15.73;;;1.10;99.90;;;;;;5074223;28;20211;-86
2023/01/27 06:49:01;;;;;;;16.83;13.67;;;1.10;99.90;;;;;;5075324;28;20211;-86
2023/01/27 06:51:26;;;;;;;18.37;15.43;;;1.20;99.90;;;;;;5078834;28;20220;-86
2023/01/27 06:53:52;;;;;;;20.73;16.53;;;1.10;99.90;;;;;;5078426;28;20184;-86
2023/01/27 06:56:18;;;;;;;18.70;16.00;;;1.20;99.90;;;;;;5079833;28;20603;-87
2023/01/27 06:58:44;;;;;;;22.47;16.93;;;1.10;99.90;;;;;;5080761;28;20206;-86
2023/01/27 07:01:09;;;;;;;19.83;16.00;;;1.10;99.90;;;;;;5079434;28;20494;-85
2023/01/27 07:03:35;;;;;;;20.83;15.73;;;1.00;99.90;;;;;;5080506;28;20195;-85
2023/01/27 07:06:04;;;;;;;23.37;16.97;;;1.10;99.90;;;;;;5081930;28;20240;-85
2023/01/27 07:08:30;;;;;;;22.80;16.70;;;1.10;99.90;;;;;;5081404;28;20237;-86
2023/01/27 07:10:56;;;;;;;23.13;18.10;;;1.20;99.90;;;;;;5081562;28;20213;-86
2023/01/27 07:13:22;;;;;;;22.23;16.97;;;1.20;99.90;;;;;;5080864;28;20676;-86
2023/01/27 07:15:53;;;;;;;24.10;17.07;;;1.30;99.90;;;;;;5081205;28;20211;-86
2023/01/27 07:18:19;;;;;;;22.27;16.77;;;1.30;99.90;;;;;;5081657;28;20199;-86
2023/01/27 07:20:45;;;;;;;21.50;16.47;;;1.20;99.90;;;;;;5080112;28;20565;-87
2023/01/27 07:23:11;;;;;;;20.83;16.80;;;1.20;99.90;;;;;;5079184;28;20183;-87
2023/01/27 07:25:38;;;;;;;22.83;17.23;;;1.10;99.90;;;;;;5078658;28;20182;-86
2023/01/27 07:28:04;;;;;;;22.07;16.37;;;1.10;99.90;;;;;;5077047;28;20199;-86
2023/01/27 07:30:30;;;;;;;25.67;18.77;;;1.10;99.90;;;;;;5075050;28;20241;-87
2023/01/27 07:33:05;;;;;;;22.67;16.90;;;1.20;99.90;;;;;;5077951;28;20190;-86
2023/01/27 07:35:32;;;;;;;26.33;19.03;;;1.20;99.90;;;;;;5076022;28;20183;-88
2023/01/27 07:37:58;;;;;;;41.50;28.20;;;1.20;99.90;;;;;;5078079;28;20290;-86
2023/01/27 07:40:23;;;;;;;26.47;20.37;;;1.20;99.90;;;;;;5076331;28;20214;-88
2023/01/27 07:42:49;;;;;;;25.50;17.93;;;1.20;99.90;;;;;;5074184;28;20184;-86
2023/01/27 07:45:15;;;;;;;23.87;17.27;;;1.30;99.90;;;;;;5074816;28;20190;-86
2023/01/27 07:47:41;;;;;;;24.23;16.77;;;1.20;99.90;;;;;;5073713;28;20246;-86
2023/01/27 07:50:07;;;;;;;21.83;15.70;;;1.20;99.90;;;;;;5073419;28;20825;-88
2023/01/27 07:52:33;;;;;;;25.47;17.53;;;1.20;99.90;;;;;;5072590;28;20563;-86
2023/01/27 07:54:58;;;;;;;22.87;16.90;;;1.20;99.90;;;;;;5072629;28;20262;-86
2023/01/27 07:57:24;;;;;;;28.13;17.60;;;1.10;99.90;;;;;;5073035;28;20184;-86
2023/01/27 07:59:54;;;;;;;22.73;16.70;;;1.10;99.90;;;;;;5073018;28;20274;-87
2023/01/27 08:02:21;;;;;;;23.03;16.87;;;1.10;99.90;;;;;;5072352;28;20294;-86
2023/01/27 08:04:49;;;;;;;22.30;16.37;;;1.10;99.90;;;;;;5076858;28;20176;-86
2023/01/27 08:07:16;;;;;;;22.83;17.00;;;1.10;99.90;;;;;;5075329;28;20626;-86
2023/01/27 08:09:42;;;;;;;21.83;14.47;;;1.10;99.90;;;;;;5073160;28;20339;-85
2023/01/27 08:12:07;;;;;;;19.50;14.53;;;1.10;99.50;;;;;;5074795;28;20222;-86
2023/01/27 08:14:33;;;;;;;17.77;13.33;;;1.10;97.90;;;;;;5073461;28;20183;-86
2023/01/27 08:17:08;;;;;;;15.17;11.17;;;1.10;97.10;;;;;;5073506;28;20191;-86
2023/01/27 08:19:33;;;;;;;14.43;11.10;;;1.20;94.40;;;;;;5074258;28;20221;-87
2023/01/27 08:21:59;;;;;;;16.20;12.20;;;1.20;94.20;;;;;;5074735;28;20696;-86
2023/01/27 08:24:25;;;;;;;12.40;10.43;;;1.10;94.10;;;;;;5073023;28;20213;-86
2023/01/27 08:26:50;;;;;;;12.33;10.23;;;1.20;92.70;;;;;;5086714;28;20188;-87
2023/01/27 08:29:16;;;;;;;16.50;11.00;;;1.20;91.80;;;;;;5086334;28;20207;-87
2023/01/27 08:31:42;;;;;;;11.93;8.87;;;1.10;92.80;;;;;;5086796;28;20286;-86
2023/01/27 08:34:08;;;;;;;10.83;9.23;;;1.10;91.10;;;;;;5082436;28;20183;-87
2023/01/27 08:36:33;;;;;;;12.30;9.53;;;1.10;90.90;;;;;;5071341;28;20298;-86
2023/01/27 08:38:59;;;;;;;13.63;10.57;;;1.00;92.00;;;;;;5073288;28;20277;-86
2023/01/27 08:41:25;;;;;;;9.60;7.97;;;1.00;90.90;;;;;;5071796;28;20536;-86
2023/01/27 08:43:53;;;;;;;11.23;9.47;;;1.10;90.40;;;;;;5071011;28;20185;-88
2023/01/27 08:46:19;;;;;;;12.07;8.27;;;1.00;90.10;;;;;;5070219;28;20179;-86
2023/01/27 08:48:45;;;;;;;9.77;8.37;;;1.00;91.00;;;;;;5072523;28;20214;-88
2023/01/27 08:51:12;;;;;;;11.67;9.13;;;1.10;90.50;;;;;;5071322;28;20337;-87
2023/01/27 08:53:38;;;;;;;12.67;9.57;;;1.10;88.90;;;;;;5070541;28;20233;-86
2023/01/27 08:56:08;;;;;;;11.37;9.17;;;1.20;88.90;;;;;;5071742;28;20176;-87
2023/01/27 08:58:34;;;;;;;12.23;8.60;;;1.20;89.20;;;;;;5071426;28;20261;-86
2023/01/27 09:01:02;;;;;;;11.17;8.07;;;1.30;88.80;;;;;;5074375;28;20199;-86
2023/01/27 09:03:28;;;;;;;11.60;8.63;;;1.30;88.60;;;;;;5073588;28;20191;-86
2023/01/27 09:05:54;;;;;;;10.83;8.70;;;1.40;88.10;;;;;;5076084;28;20573;-86
2023/01/27 09:08:20;;;;;;;10.90;7.97;;;1.30;88.40;;;;;;5073530;28;20192;-87
2023/01/27 09:10:45;;;;;;;10.07;7.57;;;1.40;87.20;;;;;;5072813;28;20198;-88
2023/01/27 09:13:11;;;;;;;9.93;8.23;;;1.30;87.60;;;;;;5070634;28;20179;-87
2023/01/27 09:15:37;;;;;;;11.83;8.00;;;1.30;88.20;;;;;;5071930;28;20180;-87
2023/01/27 09:18:04;;;;;;;9.97;7.60;;;1.40;87.40;;;;;;5070737;28;20294;-86
2023/01/27 09:20:30;;;;;;;9.53;7.80;;;1.40;88.20;;;;;;5071594;28;20278;-87
2023/01/27 09:22:56;;;;;;;9.40;7.30;;;1.40;87.50;;;;;;5072710;28;20255;-87
2023/01/27 09:25:22;;;;;;;12.80;7.93;;;1.40;87.50;;;;;;5072549;28;20194;-86
2023/01/27 09:27:52;;;;;;;9.60;8.40;;;1.50;87.70;;;;;;5071638;28;20182;-87
2023/01/27 09:30:18;;;;;;;10.60;7.87;;;1.50;87.40;;;;;;5072750;28;20183;-87
2023/01/27 09:32:43;;;;;;;12.23;8.67;;;1.60;86.20;;;;;;5072177;28;20197;-86
2023/01/27 09:35:09;;;;;;;9.53;8.30;;;1.70;86.50;;;;;;5072122;28;20179;-87
2023/01/27 09:37:44;;;;;;;9.20;7.40;;;1.70;84.80;;;;;;5070856;28;20193;-85
2023/01/27 09:40:37;;;;;;;12.50;8.53;;;1.70;84.50;;;;;;5072169;28;20624;-86
2023/01/27 09:43:18;;;;;;;11.17;7.17;;;1.80;84.30;;;;;;5071373;28;20229;-87
2023/01/27 09:45:50;;;;;;;11.57;7.33;;;1.90;84.10;;;;;;5062212;28;20201;-87
2023/01/27 09:48:30;;;;;;;9.37;7.80;;;1.80;84.20;;;;;;5072099;28;20249;-87
2023/01/27 09:51:33;;;;;;;8.67;7.17;;;1.80;85.00;;;;;;5073351;28;20179;-86
2023/01/27 09:54:07;;;;;;;10.37;7.20;;;1.80;84.90;;;;;;5074437;28;20183;-87
2023/01/27 09:56:39;;;;;;;10.67;7.70;;;1.80;84.70;;;;;;5076723;28;20187;-86
2023/01/27 09:59:10;;;;;;;9.97;8.10;;;1.80;84.80;;;;;;5077198;28;20203;-87
2023/01/27 10:02:04;;;;;;;7.93;6.93;;;1.90;83.50;;;;;;5077869;28;20175;-86
2023/01/27 10:04:50;;;;;;;9.47;7.07;;;1.80;84.00;;;;;;5077020;28;20810;-87
2023/01/27 10:07:34;;;;;;;8.63;7.47;;;1.80;85.00;;;;;;5046799;28;20253;-85
2023/01/27 10:10:08;;;;;;;9.10;7.60;;;1.90;85.60;;;;;;5077890;28;20199;-86
2023/01/27 10:12:57;;;;;;;8.47;7.00;;;1.90;86.30;;;;;;5077932;28;20260;-86
2023/01/27 10:15:57;;;;;;;8.93;7.27;;;2.00;85.30;;;;;;5078779;28;20691;-86
2023/01/27 10:18:56;;;;;;;10.17;7.83;;;2.10;84.80;;;;;;5079028;28;20688;-87
2023/01/27 10:21:28;;;;;;;9.87;8.17;;;2.20;85.00;;;;;;5077566;28;20254;-85
2023/01/27 10:24:31;;;;;;;9.33;7.20;;;2.30;84.20;;;;;;5076534;28;20197;-86
2023/01/27 10:27:15;;;;;;;7.77;5.53;;;2.20;81.90;;;;;;5079337;28;20198;-87
2023/01/27 10:29:46;;;;;;;8.43;6.40;;;2.10;80.90;;;;;;5057993;28;20239;-87
2023/01/27 10:32:20;;;;;;;8.93;8.00;;;2.10;80.30;;;;;;5074616;28;20187;-88
2023/01/27 10:34:50;;;;;;;7.27;5.40;;;2.20;81.00;;;;;;5073745;28;20208;-86
2023/01/27 10:37:21;;;;;;;6.63;5.73;;;2.10;81.30;;;;;;5075514;28;20183;-86
2023/01/27 10:40:10;;;;;;;7.13;6.30;;;2.20;79.40;;;;;;5078120;28;20218;-86
2023/01/27 10:42:48;;;;;;;14.30;7.33;;;2.20;78.30;;;;;;5066429;28;20176;-86
2023/01/27 10:45:32;;;;;;;7.67;5.80;;;2.20;78.50;;;;;;5079117;28;20231;-86
2023/01/27 10:48:14;;;;;;;6.40;5.80;;;2.20;78.30;;;;;;5076233;28;20226;-86
2023/01/27 10:50:44;;;;;;;7.60;5.80;;;2.20;78.90;;;;;;5077944;28;20656;-86
2023/01/27 10:53:19;;;;;;;7.87;6.07;;;2.20;78.60;;;;;;5075727;28;20194;-87
2023/01/27 10:56:09;;;;;;;6.07;5.13;;;2.30;78.60;;;;;;5077471;28;20167;-87
2023/01/27 10:58:54;;;;;;;9.60;6.00;;;2.30;78.70;;;;;;5074361;28;20200;-86
2023/01/27 11:01:28;;;;;;;6.57;5.43;;;2.30;78.60;;;;;;5076561;28;20233;-86
2023/01/27 11:04:38;;;;;;;6.97;4.83;;;2.20;78.70;;;;;;5077316;28;20521;-86
2023/01/27 11:07:05;;;;;;;5.40;4.90;;;2.20;78.40;;;;;;5076137;28;20167;-86
2023/01/27 11:09:35;;;;;;;6.17;5.13;;;2.30;78.60;;;;;;5083699;28;20261;-86
2023/01/27 11:12:14;;;;;;;6.57;4.80;;;2.30;78.60;;;;;;5083210;28;20237;-86
2023/01/27 11:14:49;;;;;;;9.97;5.17;;;2.40;78.40;;;;;;5077453;28;20187;-86
2023/01/27 11:17:27;;;;;;;6.53;5.30;;;2.40;77.40;;;;;;5075998;28;20176;-86
2023/01/27 11:20:02;;;;;;;6.67;4.77;;;2.40;78.30;;;;;;5092498;28;20213;-88
2023/01/27 11:22:52;;;;;;;7.43;5.20;;;2.50;78.10;;;;;;5096553;28;20163;-87
2023/01/27 11:25:45;;;;;;;6.40;5.80;;;2.40;77.70;;;;;;5096264;28;20183;-87
2023/01/27 11:28:45;;;;;;;7.10;5.13;;;2.50;77.90;;;;;;5087518;28;20206;-86
2023/01/27 11:31:34;;;;;;;5.80;5.20;;;2.50;78.00;;;;;;5070414;28;20204;-86
2023/01/27 11:34:34;;;;;;;6.17;5.27;;;2.50;77.90;;;;;;5076986;28;20196;-88
2023/01/27 11:37:08;;;;;;;6.93;5.60;;;2.50;78.00;;;;;;5077017;28;20671;-86
2023/01/27 11:39:33;;;;;;;6.73;5.60;;;2.60;77.20;;;;;;5074928;28;20346;-86
2023/01/27 11:41:59;;;;;;;5.43;4.90;;;2.70;77.40;;;;;;5076692;28;20264;-85
2023/01/27 11:44:33;;;;;;;5.50;4.93;;;2.70;77.10;;;;;;5070081;28;20529;-86
2023/01/27 11:47:00;;;;;;;8.50;7.60;;;2.70;76.60;;;;;;5077489;28;20176;-87
2023/01/27 11:49:30;;;;;;;6.37;4.97;;;2.70;75.50;;;;;;5076386;28;20260;-86
2023/01/27 11:52:10;;;;;;;6.40;5.80;;;2.70;77.50;;;;;;5059330;28;20184;-86
2023/01/27 11:54:41;;;;;;;16.97;15.33;;;2.70;77.40;;;;;;5077675;28;20272;-86
2023/01/27 11:57:19;;;;;;;8.00;6.77;;;2.80;76.30;;;;;;5076976;28;20172;-87
2023/01/27 11:59:47;;;;;;;6.23;5.30;;;2.80;76.50;;;;;;5075994;28;20712;-88
2023/01/27 12:02:36;;;;;;;6.23;5.63;;;2.90;75.10;;;;;;5076582;28;20226;-86
2023/01/27 12:05:02;;;;;;;6.07;5.47;;;2.90;75.90;;;;;;5079278;28;20195;-86
2023/01/27 12:07:37;;;;;;;5.30;4.80;;;3.00;74.30;;;;;;5077614;28;20179;-86
2023/01/27 12:10:25;;;;;;;6.87;6.13;;;2.90;75.00;;;;;;5084127;28;20194;-86
2023/01/27 12:12:52;;;;;;;6.13;5.30;;;2.90;75.90;;;;;;5083618;28;20215;-86
2023/01/27 12:15:17;;;;;;;6.07;4.60;;;2.90;75.60;;;;;;5076666;28;20245;-88
2023/01/27 12:17:54;;;;;;;6.77;5.37;;;2.90;75.10;;;;;;5075517;28;20206;-89
2023/01/27 12:20:57;;;;;;;5.33;4.83;;;2.80;75.20;;;;;;5075620;28;20235;-87
2023/01/27 12:23:28;;;;;;;5.57;4.97;;;2.80;75.10;;;;;;5046607;28;20191;-86
2023/01/27 12:26:00;;;;;;;5.17;4.57;;;2.60;77.20;;;;;;5061304;28;20326;-86
2023/01/27 12:28:33;;;;;;;5.13;4.63;;;2.60;76.60;;;;;;5074617;28;20203;-86
2023/01/27 12:31:06;;;;;;;6.33;5.20;;;2.50;77.10;;;;;;5075844;28;20883;-87
2023/01/27 12:33:34;;;;;;;4.77;4.37;;;2.60;77.00;;;;;;5074256;28;20203;-87
2023/01/27 12:36:10;;;;;;;6.73;4.63;;;2.60;76.30;;;;;;5075240;28;20245;-86
2023/01/27 12:38:36;;;;;;;5.83;5.23;;;2.60;77.50;;;;;;5074965;28;20202;-89
2023/01/27 12:41:08;;;;;;;6.90;5.47;;;2.50;78.20;;;;;;5072067;28;20302;-86
2023/01/27 12:43:54;;;;;;;5.40;4.90;;;2.50;77.60;;;;;;5074286;28;20521;-86
2023/01/27 12:46:25;;;;;;;6.43;4.80;;;2.50;77.90;;;;;;5061973;28;20271;-87
2023/01/27 12:48:58;;;;;;;5.83;4.50;;;2.50;77.60;;;;;;5072270;28;20195;-86
2023/01/27 12:51:39;;;;;;;6.33;5.73;;;2.50;77.50;;;;;;5075035;28;20231;-86
2023/01/27 12:54:23;;;;;;;10.37;7.90;;;2.50;78.00;;;;;;5074910;28;20537;-88
2023/01/27 12:56:52;;;;;;;7.57;6.20;;;2.60;77.80;;;;;;5076915;28;20377;-86
2023/01/27 12:59:20;;;;;;;9.23;5.73;;;2.60;78.00;;;;;;5081357;28;20211;-86
2023/01/27 13:02:22;;;;;;;5.67;5.07;;;2.60;78.30;;;;;;5079153;28;20168;-86
2023/01/27 13:04:56;;;;;;;6.07;4.77;;;2.70;77.20;;;;;;5053672;28;20192;-87
2023/01/27 13:07:28;;;;;;;6.33;4.73;;;2.60;76.70;;;;;;5056741;28;20695;-86
2023/01/27 13:10:02;;;;;;;4.93;4.53;;;2.70;76.50;;;;;;5073166;28;20195;-86
2023/01/27 13:12:31;;;;;;;5.70;4.70;;;2.70;76.90;;;;;;5073631;28;20175;-86
2023/01/27 13:15:15;;;;;;;5.73;4.47;;;2.70;76.80;;;;;;5071962;28;20209;-87
2023/01/27 13:17:44;;;;;;;4.40;4.00;;;2.60;77.80;;;;;;5069792;28;20179;-86
2023/01/27 13:20:21;;;;;;;5.53;4.57;;;2.80;75.70;;;;;;5074330;28;20290;-87
2023/01/27 13:22:56;;;;;;;5.20;4.70;;;2.70;75.40;;;;;;5075404;28;20190;-86
2023/01/27 13:25:29;;;;;;;10.70;4.40;;;2.70;75.80;;;;;;5073719;28;20194;-86